Time,TemperatureF,DewpointF,PressureIn,WindDirection,WindDirectionDegrees,WindSpeedMPH,WindSpeedGustMPH,Humidity,HourlyPrecipIn,Conditions,Clouds,dailyrainin,SoftwareType,DateUTC
2013-12-11 00:01:00,0.7,-6.7,30.16,SSE,157,0.0,-999.0,70,-99.99,,,0.00,Acu-Link.com,2013-12-11 07:01:00,
2013-12-11 00:16:00,1.2,-5.4,30.16,SSE,157,0.0,-999.0,73,-99.99,,,0.00,Acu-Link.com,2013-12-11 07:16:00,
2013-12-11 00:31:00,0.9,-6.0,30.16,SSE,157,0.0,-999.0,72,-99.99,,,0.00,Acu-Link.com,2013-12-11 07:31:00,
2013-12-11 00:47:00,1.9,-5.0,30.16,SSE,157,0.0,-999.0,72,-99.99,,,0.00,Acu-Link.com,2013-12-11 07:47:00,
2013-12-11 01:02:00,0.7,-6.5,30.16,SSE,157,0.0,-999.0,71,-99.99,,,0.00,Acu-Link.com,2013-12-11 08:02:00,
2013-12-11 01:17:00,0.3,-6.8,30.16,SSE,157,0.0,-999.0,71,-99.99,,,0.00,Acu-Link.com,2013-12-11 08:17:00,
2013-12-11 01:32:00,0.1,-7.0,30.17,SSE,157,0.0,-999.0,71,-99.99,,,0.00,Acu-Link.com,2013-12-11 08:32:00,
2013-12-11 01:47:00,-0.4,-7.8,30.17,SSE,157,0.0,-999.0,70,-99.99,,,0.00,Acu-Link.com,2013-12-11 08:47:00,
2013-12-11 02:03:00,-0.6,-7.7,30.18,SSE,157,0.0,-999.0,71,-99.99,,,0.00,Acu-Link.com,2013-12-11 09:03:00,
2013-12-11 02:18:00,1.2,-6.0,30.19,SSE,157,2.7,-999.0,71,-99.99,,,0.00,Acu-Link.com,2013-12-11 09:18:00,
2013-12-11 02:33:00,0.1,-7.6,30.19,SSE,157,0.0,-999.0,69,-99.99,,,0.00,Acu-Link.com,2013-12-11 09:33:00,
2013-12-11 02:48:00,-0.4,-7.8,30.19,SSE,157,0.0,-999.0,70,-99.99,,,0.00,Acu-Link.com,2013-12-11 09:48:00,
2013-12-11 03:03:00,-1.1,-8.5,30.19,SSE,157,0.0,-999.0,70,-99.99,,,0.00,Acu-Link.com,2013-12-11 10:03:00,
2013-12-11 03:19:00,-1.7,-9.1,30.19,SSE,157,0.0,-999.0,70,-99.99,,,0.00,Acu-Link.com,2013-12-11 10:19:00,
2013-12-11 03:34:00,-2.2,-9.5,30.19,SSE,157,0.0,-999.0,70,-99.99,,,0.00,Acu-Link.com,2013-12-11 10:34:00,
2013-12-11 03:49:00,-2.6,-9.9,30.19,SSE,157,0.0,-999.0,70,-99.99,,,0.00,Acu-Link.com,2013-12-11 10:49:00,
2013-12-11 04:04:00,-3.3,-10.6,30.19,SSE,157,0.0,-999.0,70,-99.99,,,0.00,Acu-Link.com,2013-12-11 11:04:00,
2013-12-11 04:19:00,-3.5,-10.8,30.19,SSE,157,0.0,-999.0,70,-99.99,,,0.00,Acu-Link.com,2013-12-11 11:19:00,
2013-12-11 04:34:00,-3.6,-10.9,30.20,SSE,157,0.0,-999.0,70,-99.99,,,0.00,Acu-Link.com,2013-12-11 11:34:00,
2013-12-11 04:50:00,-4.0,-11.0,30.20,SSE,157,0.0,-999.0,71,-99.99,,,0.00,Acu-Link.com,2013-12-11 11:50:00,
2013-12-11 05:05:00,-4.2,-11.5,30.20,SSE,157,0.0,-999.0,70,-99.99,,,0.00,Acu-Link.com,2013-12-11 12:05:00,
2013-12-11 05:20:00,-4.4,-11.7,30.20,SSE,157,0.0,-999.0,70,-99.99,,,0.00,Acu-Link.com,2013-12-11 12:20:00,
2013-12-11 05:35:00,-4.5,-11.8,30.20,SSE,157,0.0,-999.0,70,-99.99,,,0.00,Acu-Link.com,2013-12-11 12:35:00,
2013-12-11 05:50:00,-4.5,-11.8,30.21,SSE,157,0.0,-999.0,70,-99.99,,,0.00,Acu-Link.com,2013-12-11 12:50:00,
2013-12-11 06:05:00,-4.2,-10.9,30.22,SSE,157,0.0,-999.0,72,-99.99,,,0.00,Acu-Link.com,2013-12-11 13:05:00,
2013-12-11 06:21:00,-4.5,-11.5,30.23,SSE,157,0.0,-999.0,71,-99.99,,,0.00,Acu-Link.com,2013-12-11 13:21:00,
2013-12-11 06:36:00,-4.4,-11.4,30.23,SSE,157,0.0,-999.0,71,-99.99,,,0.00,Acu-Link.com,2013-12-11 13:36:00,
2013-12-11 06:51:00,-4.0,-10.7,30.23,SSE,157,0.0,-999.0,72,-99.99,,,0.00,Acu-Link.com,2013-12-11 13:51:00,
2013-12-11 07:07:00,-4.5,-11.2,30.23,SSE,157,0.0,-999.0,72,-99.99,,,0.00,Acu-Link.com,2013-12-11 14:07:00,
2013-12-11 07:22:00,-3.6,-10.3,30.24,SSE,157,0.0,-999.0,72,-99.99,,,0.00,Acu-Link.com,2013-12-11 14:22:00,
2013-12-11 07:37:00,-3.3,-9.8,30.25,SSE,157,0.0,-999.0,73,-99.99,,,0.00,Acu-Link.com,2013-12-11 14:37:00,
2013-12-11 07:53:00,-2.6,-9.4,30.26,SSE,157,0.0,-999.0,72,-99.99,,,0.00,Acu-Link.com,2013-12-11 14:53:00,
2013-12-11 08:08:00,4.6,-1.8,30.27,SSE,157,0.0,-999.0,74,-99.99,,,0.00,Acu-Link.com,2013-12-11 15:08:00,
2013-12-11 08:23:00,10.4,3.2,30.28,ESE,112,0.0,-999.0,72,-99.99,,,0.00,Acu-Link.com,2013-12-11 15:23:00,
2013-12-11 08:39:00,13.3,2.7,30.28,ESE,112,0.0,-999.0,62,-99.99,,,0.00,Acu-Link.com,2013-12-11 15:39:00,
2013-12-11 08:54:00,20.3,7.9,30.30,ESE,112,0.0,-999.0,58,-99.99,,,0.00,Acu-Link.com,2013-12-11 15:54:00,
2013-12-11 09:09:00,20.1,5.3,30.30,SE,135,0.0,-999.0,52,-99.99,,,0.00,Acu-Link.com,2013-12-11 16:09:00,
2013-12-11 09:24:00,28.0,12.2,30.31,SSW,202,0.0,-999.0,51,-99.99,,,0.00,Acu-Link.com,2013-12-11 16:24:00,
2013-12-11 09:39:00,28.4,10.8,30.32,West,270,1.7,-999.0,47,-99.99,,,0.00,Acu-Link.com,2013-12-11 16:39:00,
2013-12-11 09:54:00,28.9,10.3,30.33,West,270,0.0,-999.0,45,-99.99,,,0.00,Acu-Link.com,2013-12-11 16:54:00,
2013-12-11 10:09:00,32.4,11.4,30.34,West,270,0.0,-999.0,41,-99.99,,,0.00,Acu-Link.com,2013-12-11 17:09:00,
2013-12-11 10:24:00,36.9,13.7,30.33,West,270,0.0,-999.0,38,-99.99,,,0.00,Acu-Link.com,2013-12-11 17:24:00,
2013-12-11 10:39:00,39.4,14.1,30.33,WNW,292,2.7,-999.0,35,-99.99,,,0.00,Acu-Link.com,2013-12-11 17:39:00,
2013-12-11 10:55:00,35.8,10.9,30.32,West,270,0.0,-999.0,35,-99.99,,,0.00,Acu-Link.com,2013-12-11 17:55:00,
2013-12-11 11:10:00,39.7,13.7,30.32,West,270,1.1,-999.0,34,-99.99,,,0.00,Acu-Link.com,2013-12-11 18:10:00,
2013-12-11 11:25:00,41.4,15.2,30.32,SW,225,1.1,-999.0,34,-99.99,,,0.00,Acu-Link.com,2013-12-11 18:25:00,
2013-12-11 11:40:00,40.5,13.7,30.31,SW,225,0.0,-999.0,33,-99.99,,,0.00,Acu-Link.com,2013-12-11 18:40:00,
2013-12-11 11:56:00,44.6,13.5,30.30,SW,225,2.2,-999.0,28,-99.99,,,0.00,Acu-Link.com,2013-12-11 18:56:00,
2013-12-11 12:11:00,44.6,15.1,30.30,West,270,0.0,-999.0,30,-99.99,,,0.00,Acu-Link.com,2013-12-11 19:11:00,
2013-12-11 12:26:00,44.4,14.9,30.30,West,270,1.7,-999.0,30,-99.99,,,0.00,Acu-Link.com,2013-12-11 19:26:00,
2013-12-11 12:41:00,43.9,13.7,30.29,West,270,2.7,-999.0,29,-99.99,,,0.00,Acu-Link.com,2013-12-11 19:41:00,
2013-12-11 12:57:00,42.4,12.4,30.29,NNW,337,2.2,-999.0,29,-99.99,,,0.00,Acu-Link.com,2013-12-11 19:57:00,
2013-12-11 13:12:00,43.3,14.7,30.28,West,270,0.0,-999.0,31,-99.99,,,0.00,Acu-Link.com,2013-12-11 20:12:00,
2013-12-11 13:27:00,44.2,14.8,30.29,West,270,0.0,-999.0,30,-99.99,,,0.00,Acu-Link.com,2013-12-11 20:27:00,
2013-12-11 13:42:00,42.3,11.5,30.30,West,270,2.2,-999.0,28,-99.99,,,0.00,Acu-Link.com,2013-12-11 20:42:00,
2013-12-11 13:57:00,43.9,12.9,30.29,West,270,1.1,-999.0,28,-99.99,,,0.00,Acu-Link.com,2013-12-11 20:57:00,
2013-12-11 14:13:00,42.4,10.0,30.29,West,270,0.0,-999.0,26,-99.99,,,0.00,Acu-Link.com,2013-12-11 21:13:00,
2013-12-11 14:28:00,44.8,12.9,30.29,West,270,1.1,-999.0,27,-99.99,,,0.00,Acu-Link.com,2013-12-11 21:28:00,
2013-12-11 14:43:00,43.7,11.9,30.29,SSW,202,2.2,-999.0,27,-99.99,,,0.00,Acu-Link.com,2013-12-11 21:43:00,
2013-12-11 14:58:00,44.2,12.4,30.28,West,270,0.0,-999.0,27,-99.99,,,0.00,Acu-Link.com,2013-12-11 21:58:00,
2013-12-11 15:14:00,43.9,12.1,30.28,West,270,2.2,-999.0,27,-99.99,,,0.00,Acu-Link.com,2013-12-11 22:14:00,
2013-12-11 15:29:00,42.1,10.6,30.29,West,270,1.7,-999.0,27,-99.99,,,0.00,Acu-Link.com,2013-12-11 22:29:00,
2013-12-11 15:44:00,38.8,10.8,30.29,West,270,0.0,-999.0,31,-99.99,,,0.00,Acu-Link.com,2013-12-11 22:44:00,
2013-12-11 15:59:00,36.9,9.8,30.29,West,270,0.0,-999.0,32,-99.99,,,0.00,Acu-Link.com,2013-12-11 22:59:00,
2013-12-11 16:14:00,32.7,9.3,30.29,West,270,0.0,-999.0,37,-99.99,,,0.00,Acu-Link.com,2013-12-11 23:14:00,
2013-12-11 16:30:00,29.8,9.0,30.29,West,270,0.0,-999.0,41,-99.99,,,0.00,Acu-Link.com,2013-12-11 23:30:00,
2013-12-11 16:46:00,26.8,7.8,30.29,West,270,0.0,-999.0,44,-99.99,,,0.00,Acu-Link.com,2013-12-11 23:46:00,
2013-12-11 17:01:00,24.1,8.6,30.30,West,270,0.0,-999.0,51,-99.99,,,0.00,Acu-Link.com,2013-12-12 00:01:00,
2013-12-11 17:16:00,21.6,8.0,30.30,West,270,0.0,-999.0,55,-99.99,,,0.00,Acu-Link.com,2013-12-12 00:16:00,
2013-12-11 17:31:00,20.8,8.0,30.31,SE,135,2.2,-999.0,57,-99.99,,,0.00,Acu-Link.com,2013-12-12 00:31:00,
2013-12-11 17:47:00,19.9,7.5,30.31,SE,135,0.0,-999.0,58,-99.99,,,0.00,Acu-Link.com,2013-12-12 00:47:00,
2013-12-11 18:02:00,19.2,7.6,30.32,SE,135,0.0,-999.0,60,-99.99,,,0.00,Acu-Link.com,2013-12-12 01:02:00,
2013-12-11 18:17:00,19.8,8.6,30.32,SE,135,3.2,-999.0,61,-99.99,,,0.00,Acu-Link.com,2013-12-12 01:17:00,
2013-12-11 18:33:00,18.7,7.5,30.33,SE,135,0.0,-999.0,61,-99.99,,,0.00,Acu-Link.com,2013-12-12 01:33:00,
2013-12-11 18:48:00,16.5,6.1,30.33,SE,135,0.0,-999.0,63,-99.99,,,0.00,Acu-Link.com,2013-12-12 01:48:00,
2013-12-11 19:03:00,15.8,5.5,30.34,SE,135,0.0,-999.0,63,-99.99,,,0.00,Acu-Link.com,2013-12-12 02:03:00,
2013-12-11 19:18:00,14.5,5.2,30.34,SE,135,0.0,-999.0,66,-99.99,,,0.00,Acu-Link.com,2013-12-12 02:18:00,
2013-12-11 19:34:00,13.1,4.2,30.35,SE,135,0.0,-999.0,67,-99.99,,,0.00,Acu-Link.com,2013-12-12 02:34:00,
2013-12-11 19:49:00,12.2,4.3,30.36,SE,135,0.0,-999.0,70,-99.99,,,0.00,Acu-Link.com,2013-12-12 02:49:00,
2013-12-11 20:04:00,11.1,3.3,30.37,SE,135,0.0,-999.0,70,-99.99,,,0.00,Acu-Link.com,2013-12-12 03:04:00,
2013-12-11 20:20:00,10.0,2.2,30.36,SE,135,0.0,-999.0,70,-99.99,,,0.00,Acu-Link.com,2013-12-12 03:20:00,
2013-12-11 20:35:00,9.7,1.9,30.37,SE,135,0.0,-999.0,70,-99.99,,,0.00,Acu-Link.com,2013-12-12 03:35:00,
2013-12-11 20:50:00,10.9,2.8,30.39,SSE,157,2.7,-999.0,69,-99.99,,,0.00,Acu-Link.com,2013-12-12 03:50:00,
2013-12-11 21:05:00,10.6,1.8,30.38,South,180,1.7,-999.0,67,-99.99,,,0.00,Acu-Link.com,2013-12-12 04:05:00,
2013-12-11 21:20:00,9.0,0.6,30.40,South,180,0.0,-999.0,68,-99.99,,,0.00,Acu-Link.com,2013-12-12 04:20:00,
2013-12-11 21:35:00,8.4,0.4,30.37,South,180,0.0,-999.0,69,-99.99,,,0.00,Acu-Link.com,2013-12-12 04:35:00,
2013-12-11 21:50:00,7.5,-0.2,30.39,South,180,0.0,-999.0,70,-99.99,,,0.00,Acu-Link.com,2013-12-12 04:50:00,
2013-12-11 22:06:00,7.2,-0.2,30.40,South,180,0.0,-999.0,71,-99.99,,,0.00,Acu-Link.com,2013-12-12 05:06:00,
2013-12-11 22:21:00,6.3,-0.8,30.39,South,180,0.0,-999.0,72,-99.99,,,0.00,Acu-Link.com,2013-12-12 05:21:00,
2013-12-11 22:36:00,5.9,-0.9,30.40,South,180,0.0,-999.0,73,-99.99,,,0.00,Acu-Link.com,2013-12-12 05:36:00,
2013-12-11 22:51:00,5.4,-1.3,30.39,South,180,0.0,-999.0,73,-99.99,,,0.00,Acu-Link.com,2013-12-12 05:51:00,
2013-12-11 23:06:00,4.8,-1.6,30.41,South,180,0.0,-999.0,74,-99.99,,,0.00,Acu-Link.com,2013-12-12 06:06:00,
2013-12-11 23:22:00,4.1,-2.6,30.41,South,180,0.0,-999.0,73,-99.99,,,0.00,Acu-Link.com,2013-12-12 06:22:00,
2013-12-11 23:37:00,4.1,-2.3,30.41,South,180,0.0,-999.0,74,-99.99,,,0.00,Acu-Link.com,2013-12-12 06:37:00,
2013-12-11 23:52:00,4.1,-2.3,30.41,South,180,0.0,-999.0,74,-99.99,,,0.00,Acu-Link.com,2013-12-12 06:52:00,